sensor_id;sensor_type;location;lat;lon;timestamp;P1;durP1;ratioP1;P2;durP2;ratioP2
63350;SDS011;64988;51.058;17.040;2022-11-20T00:00:04;98.00;;;38.65;;
63350;SDS011;64988;51.058;17.040;2022-11-20T00:06:01;108.70;;;40.60;;
63350;SDS011;64988;51.058;17.040;2022-11-20T00:11:54;110.57;;;40.75;;
63350;SDS011;64988;51.058;17.040;2022-11-20T00:17:46;86.13;;;34.90;;
63350;SDS011;64988;51.058;17.040;2022-11-20T00:23:41;109.25;;;40.17;;
63350;SDS011;64988;51.058;17.040;2022-11-20T00:29:34;102.35;;;39.17;;
63350;SDS011;64988;51.058;17.040;2022-11-20T00:35:26;112.07;;;42.07;;
63350;SDS011;64988;51.058;17.040;2022-11-20T00:41:19;111.75;;;42.40;;
63350;SDS011;64988;51.058;17.040;2022-11-20T00:53:04;109.53;;;40.47;;
63350;SDS011;64988;51.058;17.040;2022-11-20T00:58:58;123.55;;;42.10;;
63350;SDS011;64988;51.058;17.040;2022-11-20T01:04:51;103.63;;;39.75;;
63350;SDS011;64988;51.058;17.040;2022-11-20T01:10:44;101.73;;;41.33;;
63350;SDS011;64988;51.058;17.040;2022-11-20T01:22:30;113.63;;;39.45;;
63350;SDS011;64988;51.058;17.040;2022-11-20T01:28:22;119.80;;;40.60;;
63350;SDS011;64988;51.058;17.040;2022-11-20T01:34:17;111.40;;;37.08;;
63350;SDS011;64988;51.058;17.040;2022-11-20T01:40:10;104.93;;;38.55;;
63350;SDS011;64988;51.058;17.040;2022-11-20T01:46:05;98.07;;;37.30;;
63350;SDS011;64988;51.058;17.040;2022-11-20T01:52:05;99.25;;;36.75;;
63350;SDS011;64988;51.058;17.040;2022-11-20T01:58:06;82.05;;;33.13;;
63350;SDS011;64988;51.058;17.040;2022-11-20T02:03:59;96.15;;;33.65;;
63350;SDS011;64988;51.058;17.040;2022-11-20T02:09:52;101.95;;;36.35;;
63350;SDS011;64988;51.058;17.040;2022-11-20T02:15:50;82.65;;;29.38;;
63350;SDS011;64988;51.058;17.040;2022-11-20T02:21:46;82.60;;;29.90;;
63350;SDS011;64988;51.058;17.040;2022-11-20T02:27:46;74.32;;;29.08;;
63350;SDS011;64988;51.058;17.040;2022-11-20T02:33:39;63.30;;;26.45;;
63350;SDS011;64988;51.058;17.040;2022-11-20T02:39:31;77.65;;;29.38;;
63350;SDS011;64988;51.058;17.040;2022-11-20T02:45:24;76.35;;;29.27;;
63350;SDS011;64988;51.058;17.040;2022-11-20T02:57:08;62.97;;;26.33;;
63350;SDS011;64988;51.058;17.040;2022-11-20T03:03:01;78.70;;;27.30;;
63350;SDS011;64988;51.058;17.040;2022-11-20T03:08:53;79.68;;;28.38;;
63350;SDS011;64988;51.058;17.040;2022-11-20T03:14:46;73.07;;;27.90;;
63350;SDS011;64988;51.058;17.040;2022-11-20T03:20:45;69.22;;;27.65;;
63350;SDS011;64988;51.058;17.040;2022-11-20T03:26:38;82.57;;;29.10;;
63350;SDS011;64988;51.058;17.040;2022-11-20T03:32:31;74.15;;;28.23;;
63350;SDS011;64988;51.058;17.040;2022-11-20T03:38:25;78.25;;;30.17;;
63350;SDS011;64988;51.058;17.040;2022-11-20T03:44:17;71.05;;;28.60;;
63350;SDS011;64988;51.058;17.040;2022-11-20T03:50:13;74.38;;;26.67;;
63350;SDS011;64988;51.058;17.040;2022-11-20T03:56:06;72.05;;;27.77;;
63350;SDS011;64988;51.058;17.040;2022-11-20T04:02:00;79.45;;;28.88;;
63350;SDS011;64988;51.058;17.040;2022-11-20T04:07:54;80.97;;;29.52;;
63350;SDS011;64988;51.058;17.040;2022-11-20T04:13:47;80.67;;;28.10;;
63350;SDS011;64988;51.058;17.040;2022-11-20T04:19:48;88.25;;;31.13;;
63350;SDS011;64988;51.058;17.040;2022-11-20T04:25:41;95.90;;;34.38;;
63350;SDS011;64988;51.058;17.040;2022-11-20T04:31:34;89.20;;;31.70;;
63350;SDS011;64988;51.058;17.040;2022-11-20T04:49:12;89.65;;;33.40;;
63350;SDS011;64988;51.058;17.040;2022-11-20T04:55:06;91.07;;;32.65;;
63350;SDS011;64988;51.058;17.040;2022-11-20T05:01:02;97.55;;;34.58;;
63350;SDS011;64988;51.058;17.040;2022-11-20T05:06:56;85.95;;;34.15;;
63350;SDS011;64988;51.058;17.040;2022-11-20T05:12:48;91.93;;;36.58;;
63350;SDS011;64988;51.058;17.040;2022-11-20T05:30:26;92.32;;;32.83;;
63350;SDS011;64988;51.058;17.040;2022-11-20T05:36:18;107.30;;;38.30;;
63350;SDS011;64988;51.058;17.040;2022-11-20T05:42:11;110.82;;;41.97;;
63350;SDS011;64988;51.058;17.040;2022-11-20T05:48:22;116.72;;;44.38;;
63350;SDS011;64988;51.058;17.040;2022-11-20T05:54:14;119.85;;;44.95;;
63350;SDS011;64988;51.058;17.040;2022-11-20T06:00:08;125.90;;;45.97;;
63350;SDS011;64988;51.058;17.040;2022-11-20T06:06:02;108.30;;;40.17;;
63350;SDS011;64988;51.058;17.040;2022-11-20T06:11:56;116.70;;;43.38;;
63350;SDS011;64988;51.058;17.040;2022-11-20T06:17:51;123.57;;;49.27;;
63350;SDS011;64988;51.058;17.040;2022-11-20T06:23:45;116.40;;;43.30;;
63350;SDS011;64988;51.058;17.040;2022-11-20T06:29:37;125.70;;;47.17;;
63350;SDS011;64988;51.058;17.040;2022-11-20T06:35:29;111.30;;;43.33;;
63350;SDS011;64988;51.058;17.040;2022-11-20T06:41:22;116.78;;;44.42;;
63350;SDS011;64988;51.058;17.040;2022-11-20T06:47:15;129.93;;;48.03;;
63350;SDS011;64988;51.058;17.040;2022-11-20T06:53:07;134.82;;;46.90;;
63350;SDS011;64988;51.058;17.040;2022-11-20T06:59:03;125.50;;;45.85;;
63350;SDS011;64988;51.058;17.040;2022-11-20T07:04:56;128.20;;;47.40;;
63350;SDS011;64988;51.058;17.040;2022-11-20T07:10:48;111.13;;;44.75;;
63350;SDS011;64988;51.058;17.040;2022-11-20T07:22:33;105.93;;;41.92;;
63350;SDS011;64988;51.058;17.040;2022-11-20T07:34:18;89.78;;;36.78;;
63350;SDS011;64988;51.058;17.040;2022-11-20T07:40:12;90.78;;;37.05;;
63350;SDS011;64988;51.058;17.040;2022-11-20T07:46:05;89.13;;;37.40;;
63350;SDS011;64988;51.058;17.040;2022-11-20T07:51:57;78.75;;;31.98;;
63350;SDS011;64988;51.058;17.040;2022-11-20T07:57:56;69.35;;;32.17;;
63350;SDS011;64988;51.058;17.040;2022-11-20T08:03:50;67.53;;;31.63;;
63350;SDS011;64988;51.058;17.040;2022-11-20T08:09:42;70.22;;;30.00;;
63350;SDS011;64988;51.058;17.040;2022-11-20T08:15:35;55.53;;;26.75;;
63350;SDS011;64988;51.058;17.040;2022-11-20T08:21:29;58.30;;;28.95;;
63350;SDS011;64988;51.058;17.040;2022-11-20T08:27:28;61.75;;;28.60;;
63350;SDS011;64988;51.058;17.040;2022-11-20T08:33:21;64.05;;;28.17;;
63350;SDS011;64988;51.058;17.040;2022-11-20T08:39:14;63.92;;;28.40;;
63350;SDS011;64988;51.058;17.040;2022-11-20T08:45:08;55.75;;;25.77;;
63350;SDS011;64988;51.058;17.040;2022-11-20T08:51:00;46.57;;;23.30;;
63350;SDS011;64988;51.058;17.040;2022-11-20T08:56:53;50.35;;;23.10;;
63350;SDS011;64988;51.058;17.040;2022-11-20T09:02:46;52.23;;;26.40;;
63350;SDS011;64988;51.058;17.040;2022-11-20T09:08:39;45.63;;;22.75;;
63350;SDS011;64988;51.058;17.040;2022-11-20T09:14:32;43.92;;;21.27;;
63350;SDS011;64988;51.058;17.040;2022-11-20T09:20:27;50.35;;;23.60;;
63350;SDS011;64988;51.058;17.040;2022-11-20T09:26:22;51.45;;;23.92;;
63350;SDS011;64988;51.058;17.040;2022-11-20T09:32:13;49.95;;;24.70;;
63350;SDS011;64988;51.058;17.040;2022-11-20T09:38:07;51.38;;;24.77;;
63350;SDS011;64988;51.058;17.040;2022-11-20T09:56:20;44.42;;;22.35;;
63350;SDS011;64988;51.058;17.040;2022-11-20T10:08:35;52.78;;;23.75;;
63350;SDS011;64988;51.058;17.040;2022-11-20T10:15:01;47.13;;;23.20;;
63350;SDS011;64988;51.058;17.040;2022-11-20T10:33:16;44.55;;;21.58;;
63350;SDS011;64988;51.058;17.040;2022-11-20T10:39:15;45.10;;;20.95;;
63350;SDS011;64988;51.058;17.040;2022-11-20T10:57:53;42.00;;;17.63;;
63350;SDS011;64988;51.058;17.040;2022-11-20T11:03:54;38.25;;;17.77;;
63350;SDS011;64988;51.058;17.040;2022-11-20T11:09:50;41.78;;;18.08;;
63350;SDS011;64988;51.058;17.040;2022-11-20T11:15:44;41.05;;;19.20;;
63350;SDS011;64988;51.058;17.040;2022-11-20T11:21:36;38.58;;;17.48;;
63350;SDS011;64988;51.058;17.040;2022-11-20T11:27:35;36.80;;;16.45;;
63350;SDS011;64988;51.058;17.040;2022-11-20T11:33:37;39.40;;;17.50;;
63350;SDS011;64988;51.058;17.040;2022-11-20T11:39:31;35.50;;;16.42;;
63350;SDS011;64988;51.058;17.040;2022-11-20T11:45:26;38.53;;;17.40;;
63350;SDS011;64988;51.058;17.040;2022-11-20T11:51:22;35.67;;;17.88;;
63350;SDS011;64988;51.058;17.040;2022-11-20T11:57:29;33.35;;;15.77;;
63350;SDS011;64988;51.058;17.040;2022-11-20T12:03:50;29.70;;;14.40;;
63350;SDS011;64988;51.058;17.040;2022-11-20T12:09:49;37.78;;;16.67;;
63350;SDS011;64988;51.058;17.040;2022-11-20T12:15:44;35.65;;;16.30;;
63350;SDS011;64988;51.058;17.040;2022-11-20T12:34:05;29.25;;;13.82;;
63350;SDS011;64988;51.058;17.040;2022-11-20T12:46:34;32.58;;;15.68;;
63350;SDS011;64988;51.058;17.040;2022-11-20T13:11:14;28.37;;;12.23;;
63350;SDS011;64988;51.058;17.040;2022-11-20T13:17:36;27.23;;;11.93;;
63350;SDS011;64988;51.058;17.040;2022-11-20T13:23:34;27.33;;;12.95;;
63350;SDS011;64988;51.058;17.040;2022-11-20T13:29:27;24.95;;;12.55;;
63350;SDS011;64988;51.058;17.040;2022-11-20T13:35:31;25.53;;;12.17;;
63350;SDS011;64988;51.058;17.040;2022-11-20T13:41:33;27.05;;;13.10;;
63350;SDS011;64988;51.058;17.040;2022-11-20T13:47:29;27.33;;;13.35;;
63350;SDS011;64988;51.058;17.040;2022-11-20T14:00:14;27.38;;;13.38;;
63350;SDS011;64988;51.058;17.040;2022-11-20T14:06:13;31.25;;;14.15;;
63350;SDS011;64988;51.058;17.040;2022-11-20T14:12:18;33.20;;;15.45;;
63350;SDS011;64988;51.058;17.040;2022-11-20T14:18:25;31.83;;;15.07;;
63350;SDS011;64988;51.058;17.040;2022-11-20T14:24:21;36.17;;;16.67;;
63350;SDS011;64988;51.058;17.040;2022-11-20T14:30:18;39.42;;;17.17;;
63350;SDS011;64988;51.058;17.040;2022-11-20T14:36:20;43.15;;;18.20;;
63350;SDS011;64988;51.058;17.040;2022-11-20T14:42:17;44.65;;;19.27;;
63350;SDS011;64988;51.058;17.040;2022-11-20T14:48:16;44.85;;;19.15;;
63350;SDS011;64988;51.058;17.040;2022-11-20T15:06:11;50.55;;;24.70;;
63350;SDS011;64988;51.058;17.040;2022-11-20T15:12:05;57.03;;;25.45;;
63350;SDS011;64988;51.058;17.040;2022-11-20T15:17:58;65.25;;;28.35;;
63350;SDS011;64988;51.058;17.040;2022-11-20T15:23:56;54.20;;;23.98;;
63350;SDS011;64988;51.058;17.040;2022-11-20T15:29:51;71.75;;;28.15;;
63350;SDS011;64988;51.058;17.040;2022-11-20T15:35:45;55.50;;;24.52;;
63350;SDS011;64988;51.058;17.040;2022-11-20T15:41:39;60.85;;;23.75;;
63350;SDS011;64988;51.058;17.040;2022-11-20T15:47:37;77.05;;;32.00;;
63350;SDS011;64988;51.058;17.040;2022-11-20T15:59:23;68.40;;;28.57;;
63350;SDS011;64988;51.058;17.040;2022-11-20T16:05:16;72.38;;;27.65;;
63350;SDS011;64988;51.058;17.040;2022-11-20T16:11:13;68.93;;;25.83;;
63350;SDS011;64988;51.058;17.040;2022-11-20T16:17:09;63.75;;;27.85;;
63350;SDS011;64988;51.058;17.040;2022-11-20T16:23:03;73.63;;;29.35;;
63350;SDS011;64988;51.058;17.040;2022-11-20T16:28:56;77.43;;;33.47;;
63350;SDS011;64988;51.058;17.040;2022-11-20T16:34:50;85.38;;;33.83;;
63350;SDS011;64988;51.058;17.040;2022-11-20T16:40:43;70.75;;;31.48;;
63350;SDS011;64988;51.058;17.040;2022-11-20T16:46:37;84.28;;;30.50;;
63350;SDS011;64988;51.058;17.040;2022-11-20T16:52:31;79.07;;;32.40;;
63350;SDS011;64988;51.058;17.040;2022-11-20T16:58:24;76.13;;;34.53;;
63350;SDS011;64988;51.058;17.040;2022-11-20T17:10:10;78.23;;;34.17;;
63350;SDS011;64988;51.058;17.040;2022-11-20T17:16:04;104.70;;;40.50;;
63350;SDS011;64988;51.058;17.040;2022-11-20T17:21:58;101.90;;;39.90;;
63350;SDS011;64988;51.058;17.040;2022-11-20T17:27:53;88.90;;;33.70;;
63350;SDS011;64988;51.058;17.040;2022-11-20T17:33:45;86.85;;;34.45;;
63350;SDS011;64988;51.058;17.040;2022-11-20T17:39:38;71.28;;;28.42;;
63350;SDS011;64988;51.058;17.040;2022-11-20T17:45:31;71.20;;;29.80;;
63350;SDS011;64988;51.058;17.040;2022-11-20T17:51:28;94.43;;;36.15;;
63350;SDS011;64988;51.058;17.040;2022-11-20T17:57:22;71.55;;;29.25;;
63350;SDS011;64988;51.058;17.040;2022-11-20T18:03:33;74.80;;;29.25;;
63350;SDS011;64988;51.058;17.040;2022-11-20T18:15:19;74.63;;;28.33;;
63350;SDS011;64988;51.058;17.040;2022-11-20T18:21:12;77.70;;;30.63;;
63350;SDS011;64988;51.058;17.040;2022-11-20T18:27:06;70.85;;;29.98;;
63350;SDS011;64988;51.058;17.040;2022-11-20T18:33:00;61.50;;;26.58;;
63350;SDS011;64988;51.058;17.040;2022-11-20T18:38:54;76.28;;;28.95;;
63350;SDS011;64988;51.058;17.040;2022-11-20T18:44:47;73.20;;;29.40;;
63350;SDS011;64988;51.058;17.040;2022-11-20T18:50:42;85.75;;;31.45;;
63350;SDS011;64988;51.058;17.040;2022-11-20T18:56:35;77.60;;;30.13;;
63350;SDS011;64988;51.058;17.040;2022-11-20T19:02:28;76.65;;;31.63;;
63350;SDS011;64988;51.058;17.040;2022-11-20T19:08:22;78.00;;;30.55;;
63350;SDS011;64988;51.058;17.040;2022-11-20T19:20:07;77.53;;;31.83;;
63350;SDS011;64988;51.058;17.040;2022-11-20T19:26:02;81.78;;;29.55;;
63350;SDS011;64988;51.058;17.040;2022-11-20T19:31:57;86.88;;;33.50;;
63350;SDS011;64988;51.058;17.040;2022-11-20T19:37:53;84.45;;;32.22;;
63350;SDS011;64988;51.058;17.040;2022-11-20T19:43:46;81.63;;;33.80;;
63350;SDS011;64988;51.058;17.040;2022-11-20T19:49:44;77.43;;;32.58;;
63350;SDS011;64988;51.058;17.040;2022-11-20T19:55:39;85.45;;;35.08;;
63350;SDS011;64988;51.058;17.040;2022-11-20T20:01:37;93.75;;;38.53;;
63350;SDS011;64988;51.058;17.040;2022-11-20T20:13:44;108.00;;;44.30;;
63350;SDS011;64988;51.058;17.040;2022-11-20T20:19:38;108.93;;;47.25;;
63350;SDS011;64988;51.058;17.040;2022-11-20T20:25:30;124.13;;;48.22;;
63350;SDS011;64988;51.058;17.040;2022-11-20T20:37:18;110.60;;;43.67;;
63350;SDS011;64988;51.058;17.040;2022-11-20T20:43:11;109.95;;;45.60;;
63350;SDS011;64988;51.058;17.040;2022-11-20T20:49:03;108.13;;;43.40;;
63350;SDS011;64988;51.058;17.040;2022-11-20T21:00:49;113.88;;;45.22;;
63350;SDS011;64988;51.058;17.040;2022-11-20T21:06:41;123.55;;;50.05;;
63350;SDS011;64988;51.058;17.040;2022-11-20T21:12:34;116.78;;;45.40;;
63350;SDS011;64988;51.058;17.040;2022-11-20T21:18:27;98.85;;;40.72;;
63350;SDS011;64988;51.058;17.040;2022-11-20T21:24:21;118.03;;;44.65;;
63350;SDS011;64988;51.058;17.040;2022-11-20T21:30:14;108.72;;;44.15;;
63350;SDS011;64988;51.058;17.040;2022-11-20T21:36:08;117.40;;;43.97;;
63350;SDS011;64988;51.058;17.040;2022-11-20T21:42:02;109.03;;;41.70;;
63350;SDS011;64988;51.058;17.040;2022-11-20T21:47:54;119.40;;;46.83;;
63350;SDS011;64988;51.058;17.040;2022-11-20T21:53:47;148.77;;;52.90;;
63350;SDS011;64988;51.058;17.040;2022-11-20T21:59:40;134.40;;;53.10;;
63350;SDS011;64988;51.058;17.040;2022-11-20T22:05:32;135.77;;;52.35;;
63350;SDS011;64988;51.058;17.040;2022-11-20T22:11:25;157.10;;;55.83;;
63350;SDS011;64988;51.058;17.040;2022-11-20T22:17:17;142.38;;;55.70;;
63350;SDS011;64988;51.058;17.040;2022-11-20T22:23:29;127.45;;;47.53;;
63350;SDS011;64988;51.058;17.040;2022-11-20T22:29:21;123.17;;;46.97;;
63350;SDS011;64988;51.058;17.040;2022-11-20T22:35:13;116.78;;;47.63;;
63350;SDS011;64988;51.058;17.040;2022-11-20T22:41:07;136.90;;;52.03;;
63350;SDS011;64988;51.058;17.040;2022-11-20T22:47:00;146.82;;;53.33;;
63350;SDS011;64988;51.058;17.040;2022-11-20T22:52:58;146.32;;;56.35;;
63350;SDS011;64988;51.058;17.040;2022-11-20T22:58:50;148.57;;;56.33;;
63350;SDS011;64988;51.058;17.040;2022-11-20T23:04:44;163.15;;;60.47;;
63350;SDS011;64988;51.058;17.040;2022-11-20T23:10:37;152.27;;;56.67;;
63350;SDS011;64988;51.058;17.040;2022-11-20T23:16:30;146.68;;;55.97;;
63350;SDS011;64988;51.058;17.040;2022-11-20T23:22:24;156.55;;;56.42;;
63350;SDS011;64988;51.058;17.040;2022-11-20T23:34:09;144.55;;;52.92;;
63350;SDS011;64988;51.058;17.040;2022-11-20T23:40:03;145.35;;;54.28;;
63350;SDS011;64988;51.058;17.040;2022-11-20T23:51:50;147.52;;;54.38;;
63350;SDS011;64988;51.058;17.040;2022-11-20T23:57:41;133.27;;;49.75;;
